sensor_id;sensor_type;location;lat;lon;timestamp;P1;durP1;ratioP1;P2;durP2;ratioP2
27201;SDS011;14717;46.924;15.474;2023-12-22T00:01:02;4.60;;;1.73;;
27201;SDS011;14717;46.924;15.474;2023-12-22T00:03:27;2.13;;;1.30;;
27201;SDS011;14717;46.924;15.474;2023-12-22T00:05:53;1.42;;;0.98;;
27201;SDS011;14717;46.924;15.474;2023-12-22T00:08:18;2.25;;;1.13;;
27201;SDS011;14717;46.924;15.474;2023-12-22T00:10:44;2.20;;;0.80;;
27201;SDS011;14717;46.924;15.474;2023-12-22T00:13:09;1.65;;;0.98;;
27201;SDS011;14717;46.924;15.474;2023-12-22T00:15:34;0.63;;;0.47;;
27201;SDS011;14717;46.924;15.474;2023-12-22T00:18:00;1.00;;;0.50;;
27201;SDS011;14717;46.924;15.474;2023-12-22T00:20:25;1.17;;;0.52;;
27201;SDS011;14717;46.924;15.474;2023-12-22T00:22:50;1.40;;;0.52;;
27201;SDS011;14717;46.924;15.474;2023-12-22T00:25:16;0.98;;;0.60;;
27201;SDS011;14717;46.924;15.474;2023-12-22T00:27:41;0.63;;;0.40;;
27201;SDS011;14717;46.924;15.474;2023-12-22T00:30:07;0.73;;;0.50;;
27201;SDS011;14717;46.924;15.474;2023-12-22T00:32:32;0.73;;;0.47;;
27201;SDS011;14717;46.924;15.474;2023-12-22T00:34:58;0.40;;;0.30;;
27201;SDS011;14717;46.924;15.474;2023-12-22T00:37:23;1.27;;;0.63;;
27201;SDS011;14717;46.924;15.474;2023-12-22T00:39:48;0.85;;;0.65;;
27201;SDS011;14717;46.924;15.474;2023-12-22T00:42:14;3.33;;;1.50;;
27201;SDS011;14717;46.924;15.474;2023-12-22T00:44:39;5.93;;;2.10;;
27201;SDS011;14717;46.924;15.474;2023-12-22T00:47:05;4.03;;;2.15;;
27201;SDS011;14717;46.924;15.474;2023-12-22T00:49:30;3.75;;;2.08;;
27201;SDS011;14717;46.924;15.474;2023-12-22T00:51:56;3.28;;;1.70;;
27201;SDS011;14717;46.924;15.474;2023-12-22T00:54:21;3.00;;;1.80;;
27201;SDS011;14717;46.924;15.474;2023-12-22T00:56:46;3.35;;;1.90;;
27201;SDS011;14717;46.924;15.474;2023-12-22T00:59:12;2.85;;;1.10;;
27201;SDS011;14717;46.924;15.474;2023-12-22T01:01:37;4.35;;;1.02;;
27201;SDS011;14717;46.924;15.474;2023-12-22T01:04:02;2.13;;;1.10;;
27201;SDS011;14717;46.924;15.474;2023-12-22T01:06:28;4.07;;;1.48;;
27201;SDS011;14717;46.924;15.474;2023-12-22T01:08:54;2.58;;;0.93;;
27201;SDS011;14717;46.924;15.474;2023-12-22T01:11:19;1.52;;;0.90;;
27201;SDS011;14717;46.924;15.474;2023-12-22T01:13:44;1.63;;;1.08;;
27201;SDS011;14717;46.924;15.474;2023-12-22T01:16:10;3.40;;;1.30;;
27201;SDS011;14717;46.924;15.474;2023-12-22T01:18:35;2.38;;;1.30;;
27201;SDS011;14717;46.924;15.474;2023-12-22T01:21:01;4.60;;;1.90;;
27201;SDS011;14717;46.924;15.474;2023-12-22T01:23:26;4.32;;;1.85;;
27201;SDS011;14717;46.924;15.474;2023-12-22T01:25:51;3.92;;;2.20;;
27201;SDS011;14717;46.924;15.474;2023-12-22T01:28:17;4.95;;;2.63;;
27201;SDS011;14717;46.924;15.474;2023-12-22T01:30:42;4.80;;;2.35;;
27201;SDS011;14717;46.924;15.474;2023-12-22T01:33:08;3.70;;;2.13;;
27201;SDS011;14717;46.924;15.474;2023-12-22T01:35:33;3.33;;;1.95;;
27201;SDS011;14717;46.924;15.474;2023-12-22T01:37:58;3.67;;;1.75;;
27201;SDS011;14717;46.924;15.474;2023-12-22T01:40:24;4.15;;;2.10;;
27201;SDS011;14717;46.924;15.474;2023-12-22T01:42:49;4.90;;;2.50;;
27201;SDS011;14717;46.924;15.474;2023-12-22T01:45:15;5.40;;;2.00;;
27201;SDS011;14717;46.924;15.474;2023-12-22T01:47:40;3.03;;;1.70;;
27201;SDS011;14717;46.924;15.474;2023-12-22T01:50:06;0.20;;;0.20;;
27201;SDS011;14717;46.924;15.474;2023-12-22T01:52:35;0.00;;;0.00;;
27201;SDS011;14717;46.924;15.474;2023-12-22T01:55:02;0.00;;;0.00;;
27201;SDS011;14717;46.924;15.474;2023-12-22T01:57:27;0.00;;;0.00;;
27201;SDS011;14717;46.924;15.474;2023-12-22T01:59:53;0.10;;;0.10;;
27201;SDS011;14717;46.924;15.474;2023-12-22T02:02:19;0.40;;;0.20;;
27201;SDS011;14717;46.924;15.474;2023-12-22T02:04:44;0.03;;;0.03;;
27201;SDS011;14717;46.924;15.474;2023-12-22T02:07:10;0.40;;;0.20;;
27201;SDS011;14717;46.924;15.474;2023-12-22T02:09:36;0.10;;;0.10;;
27201;SDS011;14717;46.924;15.474;2023-12-22T02:12:02;0.08;;;0.08;;
27201;SDS011;14717;46.924;15.474;2023-12-22T02:14:28;0.00;;;0.00;;
27201;SDS011;14717;46.924;15.474;2023-12-22T02:22:05;0.00;;;0.00;;
27201;SDS011;14717;46.924;15.474;2023-12-22T02:24:32;0.00;;;0.00;;
27201;SDS011;14717;46.924;15.474;2023-12-22T02:29:32;1.48;;;0.10;;
27201;SDS011;14717;46.924;15.474;2023-12-22T02:32:02;0.10;;;0.10;;
27201;SDS011;14717;46.924;15.474;2023-12-22T02:34:33;0.00;;;0.00;;
27201;SDS011;14717;46.924;15.474;2023-12-22T02:37:02;0.00;;;0.00;;
27201;SDS011;14717;46.924;15.474;2023-12-22T02:39:33;0.10;;;0.10;;
27201;SDS011;14717;46.924;15.474;2023-12-22T02:41:59;0.10;;;0.10;;
27201;SDS011;14717;46.924;15.474;2023-12-22T02:44:25;0.38;;;0.10;;
27201;SDS011;14717;46.924;15.474;2023-12-22T02:49:22;0.15;;;0.10;;
27201;SDS011;14717;46.924;15.474;2023-12-22T02:51:54;1.10;;;0.10;;
27201;SDS011;14717;46.924;15.474;2023-12-22T02:54:22;0.10;;;0.10;;
27201;SDS011;14717;46.924;15.474;2023-12-22T02:56:58;0.20;;;0.10;;
27201;SDS011;14717;46.924;15.474;2023-12-22T02:59:32;0.10;;;0.10;;
27201;SDS011;14717;46.924;15.474;2023-12-22T03:01:57;0.05;;;0.05;;
27201;SDS011;14717;46.924;15.474;2023-12-22T03:04:22;0.20;;;0.20;;
27201;SDS011;14717;46.924;15.474;2023-12-22T03:07:00;0.10;;;0.10;;
27201;SDS011;14717;46.924;15.474;2023-12-22T03:09:27;0.10;;;0.10;;
27201;SDS011;14717;46.924;15.474;2023-12-22T03:11:53;0.10;;;0.10;;
27201;SDS011;14717;46.924;15.474;2023-12-22T03:16:59;0.08;;;0.08;;
27201;SDS011;14717;46.924;15.474;2023-12-22T03:19:31;0.10;;;0.10;;
27201;SDS011;14717;46.924;15.474;2023-12-22T03:22:02;0.10;;;0.10;;
27201;SDS011;14717;46.924;15.474;2023-12-22T03:24:27;1.27;;;0.30;;
27201;SDS011;14717;46.924;15.474;2023-12-22T03:26:53;0.03;;;0.03;;
27201;SDS011;14717;46.924;15.474;2023-12-22T03:29:19;0.10;;;0.10;;
27201;SDS011;14717;46.924;15.474;2023-12-22T03:31:45;0.17;;;0.17;;
27201;SDS011;14717;46.924;15.474;2023-12-22T03:34:19;0.32;;;0.08;;
27201;SDS011;14717;46.924;15.474;2023-12-22T03:36:50;0.10;;;0.10;;
27201;SDS011;14717;46.924;15.474;2023-12-22T03:39:17;0.85;;;0.40;;
27201;SDS011;14717;46.924;15.474;2023-12-22T03:41:45;0.17;;;0.08;;
27201;SDS011;14717;46.924;15.474;2023-12-22T03:44:11;0.13;;;0.13;;
27201;SDS011;14717;46.924;15.474;2023-12-22T03:46:36;0.45;;;0.25;;
27201;SDS011;14717;46.924;15.474;2023-12-22T03:49:02;0.75;;;0.43;;
27201;SDS011;14717;46.924;15.474;2023-12-22T03:51:32;0.20;;;0.20;;
27201;SDS011;14717;46.924;15.474;2023-12-22T03:54:06;0.57;;;0.20;;
27201;SDS011;14717;46.924;15.474;2023-12-22T03:56:42;0.25;;;0.25;;
27201;SDS011;14717;46.924;15.474;2023-12-22T03:59:28;0.30;;;0.30;;
27201;SDS011;14717;46.924;15.474;2023-12-22T04:01:59;2.38;;;0.25;;
27201;SDS011;14717;46.924;15.474;2023-12-22T04:04:38;0.22;;;0.20;;
27201;SDS011;14717;46.924;15.474;2023-12-22T04:07:11;0.68;;;0.25;;
27201;SDS011;14717;46.924;15.474;2023-12-22T04:09:44;0.80;;;0.45;;
27201;SDS011;14717;46.924;15.474;2023-12-22T04:14:42;0.68;;;0.40;;
27201;SDS011;14717;46.924;15.474;2023-12-22T04:17:16;1.02;;;0.30;;
27201;SDS011;14717;46.924;15.474;2023-12-22T04:19:42;0.28;;;0.20;;
27201;SDS011;14717;46.924;15.474;2023-12-22T04:22:07;0.30;;;0.25;;
27201;SDS011;14717;46.924;15.474;2023-12-22T04:24:32;0.43;;;0.30;;
27201;SDS011;14717;46.924;15.474;2023-12-22T04:27:09;0.30;;;0.28;;
27201;SDS011;14717;46.924;15.474;2023-12-22T04:29:45;0.30;;;0.30;;
27201;SDS011;14717;46.924;15.474;2023-12-22T04:32:19;2.40;;;1.30;;
27201;SDS011;14717;46.924;15.474;2023-12-22T04:34:50;1.00;;;0.60;;
27201;SDS011;14717;46.924;15.474;2023-12-22T04:37:21;0.57;;;0.50;;
27201;SDS011;14717;46.924;15.474;2023-12-22T04:39:49;1.52;;;0.80;;
27201;SDS011;14717;46.924;15.474;2023-12-22T04:42:18;3.63;;;1.33;;
27201;SDS011;14717;46.924;15.474;2023-12-22T04:47:13;0.77;;;0.50;;
27201;SDS011;14717;46.924;15.474;2023-12-22T04:49:39;0.47;;;0.20;;
27201;SDS011;14717;46.924;15.474;2023-12-22T04:52:08;1.00;;;0.52;;
27201;SDS011;14717;46.924;15.474;2023-12-22T04:54:33;1.10;;;0.60;;
27201;SDS011;14717;46.924;15.474;2023-12-22T04:56:58;1.42;;;0.50;;
27201;SDS011;14717;46.924;15.474;2023-12-22T04:59:26;1.42;;;0.90;;
27201;SDS011;14717;46.924;15.474;2023-12-22T05:01:54;1.63;;;0.90;;
27201;SDS011;14717;46.924;15.474;2023-12-22T05:04:22;3.03;;;1.00;;
27201;SDS011;14717;46.924;15.474;2023-12-22T05:06:48;0.52;;;0.32;;
27201;SDS011;14717;46.924;15.474;2023-12-22T05:09:14;0.30;;;0.30;;
27201;SDS011;14717;46.924;15.474;2023-12-22T05:11:43;0.88;;;0.40;;
27201;SDS011;14717;46.924;15.474;2023-12-22T05:14:09;1.25;;;0.57;;
27201;SDS011;14717;46.924;15.474;2023-12-22T05:16:37;0.38;;;0.38;;
27201;SDS011;14717;46.924;15.474;2023-12-22T05:19:08;0.08;;;0.08;;
27201;SDS011;14717;46.924;15.474;2023-12-22T05:21:33;0.20;;;0.20;;
27201;SDS011;14717;46.924;15.474;2023-12-22T05:24:02;0.85;;;0.50;;
27201;SDS011;14717;46.924;15.474;2023-12-22T05:26:33;0.40;;;0.40;;
27201;SDS011;14717;46.924;15.474;2023-12-22T05:29:01;0.20;;;0.20;;
27201;SDS011;14717;46.924;15.474;2023-12-22T05:31:27;0.10;;;0.10;;
27201;SDS011;14717;46.924;15.474;2023-12-22T05:33:52;0.10;;;0.10;;
27201;SDS011;14717;46.924;15.474;2023-12-22T05:36:29;0.35;;;0.25;;
27201;SDS011;14717;46.924;15.474;2023-12-22T05:39:07;0.35;;;0.25;;
27201;SDS011;14717;46.924;15.474;2023-12-22T05:41:50;1.65;;;0.40;;
27201;SDS011;14717;46.924;15.474;2023-12-22T05:44:16;0.57;;;0.40;;
27201;SDS011;14717;46.924;15.474;2023-12-22T05:46:49;1.40;;;0.63;;
27201;SDS011;14717;46.924;15.474;2023-12-22T05:49:17;2.95;;;1.02;;
27201;SDS011;14717;46.924;15.474;2023-12-22T05:51:48;2.10;;;0.82;;
27201;SDS011;14717;46.924;15.474;2023-12-22T05:54:16;2.50;;;1.02;;
27201;SDS011;14717;46.924;15.474;2023-12-22T05:56:46;2.50;;;0.85;;
27201;SDS011;14717;46.924;15.474;2023-12-22T05:59:24;0.90;;;0.57;;
27201;SDS011;14717;46.924;15.474;2023-12-22T06:02:01;0.60;;;0.30;;
27201;SDS011;14717;46.924;15.474;2023-12-22T06:04:37;0.57;;;0.50;;
27201;SDS011;14717;46.924;15.474;2023-12-22T06:07:18;0.90;;;0.60;;
27201;SDS011;14717;46.924;15.474;2023-12-22T06:09:46;0.38;;;0.38;;
27201;SDS011;14717;46.924;15.474;2023-12-22T06:12:12;3.85;;;0.32;;
27201;SDS011;14717;46.924;15.474;2023-12-22T06:14:37;0.85;;;0.50;;
27201;SDS011;14717;46.924;15.474;2023-12-22T06:17:02;0.50;;;0.30;;
27201;SDS011;14717;46.924;15.474;2023-12-22T06:19:28;0.10;;;0.10;;
27201;SDS011;14717;46.924;15.474;2023-12-22T06:21:55;0.17;;;0.17;;
27201;SDS011;14717;46.924;15.474;2023-12-22T06:24:22;0.28;;;0.10;;
27201;SDS011;14717;46.924;15.474;2023-12-22T06:26:48;0.63;;;0.35;;
27201;SDS011;14717;46.924;15.474;2023-12-22T06:29:13;0.38;;;0.30;;
27201;SDS011;14717;46.924;15.474;2023-12-22T06:31:39;1.67;;;0.40;;
27201;SDS011;14717;46.924;15.474;2023-12-22T06:34:04;0.63;;;0.40;;
27201;SDS011;14717;46.924;15.474;2023-12-22T06:36:30;1.25;;;0.60;;
27201;SDS011;14717;46.924;15.474;2023-12-22T06:38:55;0.40;;;0.40;;
27201;SDS011;14717;46.924;15.474;2023-12-22T06:41:31;1.05;;;0.60;;
27201;SDS011;14717;46.924;15.474;2023-12-22T06:43:57;1.83;;;1.00;;
27201;SDS011;14717;46.924;15.474;2023-12-22T06:46:26;3.35;;;1.40;;
27201;SDS011;14717;46.924;15.474;2023-12-22T06:48:52;2.35;;;1.05;;
27201;SDS011;14717;46.924;15.474;2023-12-22T06:51:18;2.05;;;1.10;;
27201;SDS011;14717;46.924;15.474;2023-12-22T06:53:46;1.52;;;0.85;;
27201;SDS011;14717;46.924;15.474;2023-12-22T06:58:44;0.98;;;0.70;;
27201;SDS011;14717;46.924;15.474;2023-12-22T07:01:11;1.35;;;0.80;;
27201;SDS011;14717;46.924;15.474;2023-12-22T07:03:37;1.65;;;1.05;;
27201;SDS011;14717;46.924;15.474;2023-12-22T07:06:03;1.42;;;0.75;;
27201;SDS011;14717;46.924;15.474;2023-12-22T07:08:29;4.97;;;1.67;;
27201;SDS011;14717;46.924;15.474;2023-12-22T07:10:54;5.15;;;2.13;;
27201;SDS011;14717;46.924;15.474;2023-12-22T07:13:19;4.78;;;1.80;;
27201;SDS011;14717;46.924;15.474;2023-12-22T07:15:45;5.30;;;2.33;;
27201;SDS011;14717;46.924;15.474;2023-12-22T07:18:10;4.90;;;2.40;;
27201;SDS011;14717;46.924;15.474;2023-12-22T07:20:36;7.00;;;2.05;;
27201;SDS011;14717;46.924;15.474;2023-12-22T07:23:01;3.85;;;1.67;;
27201;SDS011;14717;46.924;15.474;2023-12-22T07:25:26;6.65;;;2.40;;
27201;SDS011;14717;46.924;15.474;2023-12-22T07:27:52;5.35;;;2.00;;
27201;SDS011;14717;46.924;15.474;2023-12-22T07:30:17;6.10;;;2.45;;
27201;SDS011;14717;46.924;15.474;2023-12-22T07:32:43;2.75;;;1.30;;
27201;SDS011;14717;46.924;15.474;2023-12-22T07:35:12;2.35;;;1.15;;
27201;SDS011;14717;46.924;15.474;2023-12-22T07:37:48;3.10;;;1.00;;
27201;SDS011;14717;46.924;15.474;2023-12-22T07:40:21;2.20;;;1.20;;
27201;SDS011;14717;46.924;15.474;2023-12-22T07:42:54;1.58;;;1.00;;
27201;SDS011;14717;46.924;15.474;2023-12-22T07:45:20;1.77;;;1.00;;
27201;SDS011;14717;46.924;15.474;2023-12-22T07:47:45;2.30;;;1.02;;
27201;SDS011;14717;46.924;15.474;2023-12-22T07:50:11;2.25;;;1.00;;
27201;SDS011;14717;46.924;15.474;2023-12-22T07:52:39;1.27;;;0.80;;
27201;SDS011;14717;46.924;15.474;2023-12-22T07:55:17;1.85;;;0.50;;
27201;SDS011;14717;46.924;15.474;2023-12-22T07:57:45;0.35;;;0.35;;
27201;SDS011;14717;46.924;15.474;2023-12-22T08:03:42;0.45;;;0.45;;
27201;SDS011;14717;46.924;15.474;2023-12-22T08:06:17;0.43;;;0.30;;
27201;SDS011;14717;46.924;15.474;2023-12-22T08:09:14;0.68;;;0.28;;
27201;SDS011;14717;46.924;15.474;2023-12-22T08:12:21;0.47;;;0.30;;
27201;SDS011;14717;46.924;15.474;2023-12-22T08:15:07;1.10;;;0.50;;
27201;SDS011;14717;46.924;15.474;2023-12-22T08:17:52;0.30;;;0.30;;
27201;SDS011;14717;46.924;15.474;2023-12-22T08:21:04;2.42;;;1.20;;
27201;SDS011;14717;46.924;15.474;2023-12-22T08:23:58;1.85;;;1.08;;
27201;SDS011;14717;46.924;15.474;2023-12-22T08:26:38;1.80;;;0.80;;
27201;SDS011;14717;46.924;15.474;2023-12-22T08:29:03;1.85;;;1.20;;
27201;SDS011;14717;46.924;15.474;2023-12-22T08:31:29;3.33;;;1.90;;
27201;SDS011;14717;46.924;15.474;2023-12-22T08:33:54;3.60;;;1.80;;
27201;SDS011;14717;46.924;15.474;2023-12-22T08:36:19;1.73;;;0.70;;
27201;SDS011;14717;46.924;15.474;2023-12-22T08:38:44;2.58;;;1.00;;
27201;SDS011;14717;46.924;15.474;2023-12-22T08:41:10;3.38;;;1.77;;
27201;SDS011;14717;46.924;15.474;2023-12-22T08:43:36;4.00;;;1.38;;
27201;SDS011;14717;46.924;15.474;2023-12-22T08:46:03;1.38;;;0.80;;
27201;SDS011;14717;46.924;15.474;2023-12-22T08:48:29;2.10;;;1.08;;
27201;SDS011;14717;46.924;15.474;2023-12-22T08:50:54;1.73;;;0.82;;
27201;SDS011;14717;46.924;15.474;2023-12-22T08:53:20;2.97;;;0.80;;
27201;SDS011;14717;46.924;15.474;2023-12-22T08:55:45;1.38;;;0.55;;
27201;SDS011;14717;46.924;15.474;2023-12-22T08:58:10;4.88;;;1.00;;
27201;SDS011;14717;46.924;15.474;2023-12-22T09:00:36;2.58;;;1.30;;
27201;SDS011;14717;46.924;15.474;2023-12-22T09:03:01;2.45;;;0.98;;
27201;SDS011;14717;46.924;15.474;2023-12-22T09:05:27;1.55;;;0.73;;
27201;SDS011;14717;46.924;15.474;2023-12-22T09:07:52;2.10;;;0.90;;
27201;SDS011;14717;46.924;15.474;2023-12-22T09:10:18;3.50;;;1.90;;
27201;SDS011;14717;46.924;15.474;2023-12-22T09:12:44;3.47;;;1.60;;
27201;SDS011;14717;46.924;15.474;2023-12-22T09:15:09;4.57;;;1.60;;
27201;SDS011;14717;46.924;15.474;2023-12-22T09:17:34;6.53;;;1.88;;
27201;SDS011;14717;46.924;15.474;2023-12-22T09:20:00;4.82;;;1.55;;
27201;SDS011;14717;46.924;15.474;2023-12-22T09:22:26;2.50;;;1.17;;
27201;SDS011;14717;46.924;15.474;2023-12-22T09:24:51;3.30;;;1.38;;
27201;SDS011;14717;46.924;15.474;2023-12-22T09:27:16;6.90;;;2.33;;
27201;SDS011;14717;46.924;15.474;2023-12-22T09:29:42;4.82;;;2.50;;
27201;SDS011;14717;46.924;15.474;2023-12-22T09:32:07;5.97;;;2.53;;
27201;SDS011;14717;46.924;15.474;2023-12-22T09:34:33;5.88;;;3.10;;
27201;SDS011;14717;46.924;15.474;2023-12-22T09:36:58;6.75;;;3.03;;
27201;SDS011;14717;46.924;15.474;2023-12-22T09:39:23;5.13;;;1.98;;
27201;SDS011;14717;46.924;15.474;2023-12-22T09:41:49;3.15;;;1.63;;
27201;SDS011;14717;46.924;15.474;2023-12-22T09:44:18;2.75;;;1.40;;
27201;SDS011;14717;46.924;15.474;2023-12-22T09:46:48;3.60;;;1.55;;
27201;SDS011;14717;46.924;15.474;2023-12-22T09:49:16;4.07;;;1.85;;
27201;SDS011;14717;46.924;15.474;2023-12-22T09:51:42;4.13;;;1.60;;
27201;SDS011;14717;46.924;15.474;2023-12-22T09:54:09;4.90;;;2.00;;
27201;SDS011;14717;46.924;15.474;2023-12-22T09:56:35;4.85;;;2.15;;
27201;SDS011;14717;46.924;15.474;2023-12-22T09:59:06;11.38;;;4.00;;
27201;SDS011;14717;46.924;15.474;2023-12-22T10:01:33;11.95;;;4.43;;
27201;SDS011;14717;46.924;15.474;2023-12-22T10:03:59;8.45;;;3.50;;
27201;SDS011;14717;46.924;15.474;2023-12-22T10:06:25;7.15;;;2.80;;
27201;SDS011;14717;46.924;15.474;2023-12-22T10:08:51;4.95;;;2.03;;
27201;SDS011;14717;46.924;15.474;2023-12-22T10:11:18;3.63;;;2.22;;
27201;SDS011;14717;46.924;15.474;2023-12-22T10:13:45;5.68;;;2.10;;
27201;SDS011;14717;46.924;15.474;2023-12-22T10:16:13;2.83;;;1.63;;
27201;SDS011;14717;46.924;15.474;2023-12-22T10:18:39;2.42;;;1.70;;
27201;SDS011;14717;46.924;15.474;2023-12-22T10:21:04;3.03;;;1.88;;
27201;SDS011;14717;46.924;15.474;2023-12-22T10:23:30;2.75;;;1.70;;
27201;SDS011;14717;46.924;15.474;2023-12-22T10:25:57;4.35;;;2.22;;
27201;SDS011;14717;46.924;15.474;2023-12-22T10:28:23;2.70;;;1.63;;
27201;SDS011;14717;46.924;15.474;2023-12-22T10:30:49;3.78;;;1.70;;
27201;SDS011;14717;46.924;15.474;2023-12-22T10:33:15;3.72;;;2.00;;
27201;SDS011;14717;46.924;15.474;2023-12-22T10:35:41;4.43;;;1.90;;
27201;SDS011;14717;46.924;15.474;2023-12-22T10:38:07;5.38;;;2.40;;
27201;SDS011;14717;46.924;15.474;2023-12-22T10:40:32;6.90;;;3.05;;
27201;SDS011;14717;46.924;15.474;2023-12-22T10:42:58;9.55;;;3.92;;
27201;SDS011;14717;46.924;15.474;2023-12-22T10:45:24;9.20;;;3.63;;
27201;SDS011;14717;46.924;15.474;2023-12-22T10:47:49;7.05;;;3.60;;
27201;SDS011;14717;46.924;15.474;2023-12-22T10:50:18;8.05;;;4.53;;
27201;SDS011;14717;46.924;15.474;2023-12-22T10:52:54;9.65;;;3.67;;
27201;SDS011;14717;46.924;15.474;2023-12-22T10:55:19;5.65;;;3.42;;
27201;SDS011;14717;46.924;15.474;2023-12-22T10:57:48;7.72;;;4.25;;
27201;SDS011;14717;46.924;15.474;2023-12-22T11:00:16;4.80;;;2.67;;
27201;SDS011;14717;46.924;15.474;2023-12-22T11:02:47;3.97;;;1.75;;
27201;SDS011;14717;46.924;15.474;2023-12-22T11:05:13;3.83;;;2.15;;
27201;SDS011;14717;46.924;15.474;2023-12-22T11:07:41;5.03;;;1.98;;
27201;SDS011;14717;46.924;15.474;2023-12-22T11:10:14;3.53;;;1.40;;
27201;SDS011;14717;46.924;15.474;2023-12-22T11:12:45;4.05;;;1.80;;
27201;SDS011;14717;46.924;15.474;2023-12-22T11:15:12;4.78;;;1.52;;
27201;SDS011;14717;46.924;15.474;2023-12-22T11:17:40;2.92;;;1.40;;
27201;SDS011;14717;46.924;15.474;2023-12-22T11:20:08;2.38;;;1.38;;
27201;SDS011;14717;46.924;15.474;2023-12-22T11:22:35;2.40;;;1.35;;
27201;SDS011;14717;46.924;15.474;2023-12-22T11:25:02;2.35;;;1.40;;
27201;SDS011;14717;46.924;15.474;2023-12-22T11:27:28;1.88;;;1.10;;
27201;SDS011;14717;46.924;15.474;2023-12-22T11:29:54;2.00;;;1.10;;
27201;SDS011;14717;46.924;15.474;2023-12-22T11:32:20;3.83;;;1.88;;
27201;SDS011;14717;46.924;15.474;2023-12-22T11:34:46;5.82;;;2.00;;
27201;SDS011;14717;46.924;15.474;2023-12-22T11:37:13;6.68;;;2.42;;
27201;SDS011;14717;46.924;15.474;2023-12-22T11:39:40;3.58;;;1.70;;
27201;SDS011;14717;46.924;15.474;2023-12-22T11:42:07;3.15;;;1.77;;
27201;SDS011;14717;46.924;15.474;2023-12-22T11:44:44;3.95;;;1.60;;
27201;SDS011;14717;46.924;15.474;2023-12-22T11:47:10;3.33;;;1.52;;
27201;SDS011;14717;46.924;15.474;2023-12-22T11:49:38;1.95;;;1.25;;
27201;SDS011;14717;46.924;15.474;2023-12-22T11:52:10;2.13;;;1.13;;
27201;SDS011;14717;46.924;15.474;2023-12-22T11:54:52;3.90;;;1.88;;
27201;SDS011;14717;46.924;15.474;2023-12-22T11:57:52;2.25;;;1.45;;
27201;SDS011;14717;46.924;15.474;2023-12-22T12:02:54;1.20;;;0.77;;
27201;SDS011;14717;46.924;15.474;2023-12-22T12:05:20;0.75;;;0.47;;
27201;SDS011;14717;46.924;15.474;2023-12-22T12:07:46;1.10;;;0.60;;
27201;SDS011;14717;46.924;15.474;2023-12-22T12:13:05;1.48;;;0.50;;
27201;SDS011;14717;46.924;15.474;2023-12-22T12:15:31;0.63;;;0.30;;
27201;SDS011;14717;46.924;15.474;2023-12-22T12:17:59;0.32;;;0.32;;
27201;SDS011;14717;46.924;15.474;2023-12-22T12:20:25;0.50;;;0.40;;
27201;SDS011;14717;46.924;15.474;2023-12-22T12:22:50;0.90;;;0.50;;
27201;SDS011;14717;46.924;15.474;2023-12-22T12:25:16;0.98;;;0.60;;
27201;SDS011;14717;46.924;15.474;2023-12-22T12:27:41;0.63;;;0.50;;
27201;SDS011;14717;46.924;15.474;2023-12-22T12:30:10;0.57;;;0.40;;
27201;SDS011;14717;46.924;15.474;2023-12-22T12:32:38;1.27;;;0.82;;
27201;SDS011;14717;46.924;15.474;2023-12-22T12:35:04;0.65;;;0.45;;
27201;SDS011;14717;46.924;15.474;2023-12-22T12:37:30;2.47;;;0.40;;
27201;SDS011;14717;46.924;15.474;2023-12-22T12:39:57;0.63;;;0.40;;
27201;SDS011;14717;46.924;15.474;2023-12-22T12:42:32;0.63;;;0.30;;
27201;SDS011;14717;46.924;15.474;2023-12-22T12:45:00;0.35;;;0.30;;
27201;SDS011;14717;46.924;15.474;2023-12-22T12:47:28;3.25;;;2.20;;
27201;SDS011;14717;46.924;15.474;2023-12-22T12:49:57;2.47;;;1.90;;
27201;SDS011;14717;46.924;15.474;2023-12-22T12:52:24;1.65;;;0.65;;
27201;SDS011;14717;46.924;15.474;2023-12-22T12:54:50;1.50;;;1.10;;
27201;SDS011;14717;46.924;15.474;2023-12-22T12:57:16;0.98;;;0.70;;
27201;SDS011;14717;46.924;15.474;2023-12-22T12:59:46;0.98;;;0.77;;
27201;SDS011;14717;46.924;15.474;2023-12-22T13:02:18;2.05;;;1.00;;
27201;SDS011;14717;46.924;15.474;2023-12-22T13:04:44;2.13;;;0.90;;
27201;SDS011;14717;46.924;15.474;2023-12-22T13:07:10;3.05;;;1.20;;
27201;SDS011;14717;46.924;15.474;2023-12-22T13:09:37;3.50;;;1.60;;
27201;SDS011;14717;46.924;15.474;2023-12-22T13:14:30;2.65;;;1.60;;
27201;SDS011;14717;46.924;15.474;2023-12-22T13:16:56;4.15;;;1.70;;
27201;SDS011;14717;46.924;15.474;2023-12-22T13:19:25;2.95;;;1.50;;
27201;SDS011;14717;46.924;15.474;2023-12-22T13:21:51;3.83;;;1.80;;
27201;SDS011;14717;46.924;15.474;2023-12-22T13:24:18;2.83;;;1.45;;
27201;SDS011;14717;46.924;15.474;2023-12-22T13:26:44;2.45;;;1.40;;
27201;SDS011;14717;46.924;15.474;2023-12-22T13:29:10;3.42;;;1.50;;
27201;SDS011;14717;46.924;15.474;2023-12-22T13:31:37;1.80;;;1.05;;
27201;SDS011;14717;46.924;15.474;2023-12-22T13:34:08;3.05;;;1.20;;
27201;SDS011;14717;46.924;15.474;2023-12-22T13:36:42;1.80;;;0.73;;
27201;SDS011;14717;46.924;15.474;2023-12-22T13:39:08;2.03;;;1.25;;
27201;SDS011;14717;46.924;15.474;2023-12-22T13:41:34;4.20;;;1.95;;
27201;SDS011;14717;46.924;15.474;2023-12-22T13:44:04;92.10;;;34.53;;
27201;SDS011;14717;46.924;15.474;2023-12-22T13:46:30;67.13;;;24.65;;
27201;SDS011;14717;46.924;15.474;2023-12-22T13:48:56;94.35;;;34.00;;
27201;SDS011;14717;46.924;15.474;2023-12-22T13:51:22;83.63;;;30.50;;
27201;SDS011;14717;46.924;15.474;2023-12-22T13:53:48;64.60;;;23.80;;
27201;SDS011;14717;46.924;15.474;2023-12-22T13:56:14;11.82;;;5.97;;
27201;SDS011;14717;46.924;15.474;2023-12-22T13:58:46;8.98;;;4.65;;
27201;SDS011;14717;46.924;15.474;2023-12-22T14:01:15;10.88;;;4.68;;
27201;SDS011;14717;46.924;15.474;2023-12-22T14:03:41;12.00;;;5.70;;
27201;SDS011;14717;46.924;15.474;2023-12-22T14:06:07;11.55;;;7.22;;
27201;SDS011;14717;46.924;15.474;2023-12-22T14:08:34;13.63;;;8.55;;
27201;SDS011;14717;46.924;15.474;2023-12-22T14:11:08;11.38;;;7.55;;
27201;SDS011;14717;46.924;15.474;2023-12-22T14:13:34;14.30;;;8.10;;
27201;SDS011;14717;46.924;15.474;2023-12-22T14:16:05;12.10;;;6.47;;
27201;SDS011;14717;46.924;15.474;2023-12-22T14:18:31;10.18;;;5.47;;
27201;SDS011;14717;46.924;15.474;2023-12-22T14:20:57;7.65;;;3.65;;
27201;SDS011;14717;46.924;15.474;2023-12-22T14:23:23;6.78;;;3.85;;
27201;SDS011;14717;46.924;15.474;2023-12-22T14:25:49;6.72;;;3.25;;
27201;SDS011;14717;46.924;15.474;2023-12-22T14:28:15;4.65;;;2.35;;
27201;SDS011;14717;46.924;15.474;2023-12-22T14:30:40;4.05;;;2.40;;
27201;SDS011;14717;46.924;15.474;2023-12-22T14:33:05;11.48;;;5.18;;
27201;SDS011;14717;46.924;15.474;2023-12-22T14:35:31;6.72;;;2.85;;
27201;SDS011;14717;46.924;15.474;2023-12-22T14:37:56;4.93;;;2.35;;
27201;SDS011;14717;46.924;15.474;2023-12-22T14:40:21;3.95;;;2.53;;
27201;SDS011;14717;46.924;15.474;2023-12-22T14:42:47;7.32;;;2.50;;
27201;SDS011;14717;46.924;15.474;2023-12-22T14:45:12;3.95;;;2.00;;
27201;SDS011;14717;46.924;15.474;2023-12-22T14:47:37;4.25;;;2.30;;
27201;SDS011;14717;46.924;15.474;2023-12-22T14:50:03;3.55;;;1.95;;
27201;SDS011;14717;46.924;15.474;2023-12-22T14:52:32;3.83;;;2.22;;
27201;SDS011;14717;46.924;15.474;2023-12-22T14:54:58;3.75;;;2.00;;
27201;SDS011;14717;46.924;15.474;2023-12-22T14:57:24;5.07;;;2.40;;
27201;SDS011;14717;46.924;15.474;2023-12-22T14:59:50;3.90;;;2.17;;
27201;SDS011;14717;46.924;15.474;2023-12-22T15:02:15;4.20;;;2.35;;
27201;SDS011;14717;46.924;15.474;2023-12-22T15:04:41;4.43;;;2.40;;
27201;SDS011;14717;46.924;15.474;2023-12-22T15:07:06;5.80;;;2.58;;
27201;SDS011;14717;46.924;15.474;2023-12-22T15:09:32;5.57;;;2.97;;